createdAt,value
2023-03-28T00:01:46.192Z,75.10
2023-03-28T00:03:53.653Z,75.10
2023-03-28T00:06:03.637Z,75.00
2023-03-28T00:08:12.911Z,75.20
2023-03-28T00:10:20.146Z,75.30
2023-03-28T00:12:27.788Z,75.30
2023-03-28T00:14:36.610Z,74.90
2023-03-28T00:16:46.555Z,74.80
2023-03-28T00:18:53.531Z,75.00
2023-03-28T00:21:02.812Z,75.30
2023-03-28T00:23:11.023Z,75.40
2023-03-28T00:25:19.279Z,75.20
2023-03-28T00:27:26.455Z,75.30
2023-03-28T00:29:33.691Z,75.60
2023-03-28T00:31:42.154Z,75.40
2023-03-28T00:33:49.875Z,75.60
2023-03-28T00:35:59.127Z,75.20
2023-03-28T00:38:08.002Z,75.20
2023-03-28T00:40:15.335Z,75.10
2023-03-28T00:42:23.842Z,75.20
2023-03-28T00:44:48.387Z,75.30
2023-03-28T00:46:56.030Z,75.10
2023-03-28T00:49:06.908Z,74.90
2023-03-28T00:51:15.764Z,75.00
2023-03-28T00:53:28.426Z,75.00
2023-03-28T00:55:40.474Z,74.70
2023-03-28T00:57:47.402Z,74.70
2023-03-28T00:59:55.705Z,74.90
2023-03-28T01:02:03.174Z,74.60
2023-03-28T01:04:11.088Z,75.10
2023-03-28T01:06:22.621Z,75.00
2023-03-28T01:08:32.417Z,74.90
2023-03-28T01:10:39.900Z,75.10
2023-03-28T01:12:47.752Z,74.70
2023-03-28T01:14:58.923Z,75.00
2023-03-28T01:17:14.757Z,75.10
2023-03-28T01:19:32.537Z,74.70
2023-03-28T01:22:21.758Z,74.60
2023-03-28T01:25:03.813Z,74.50
2023-03-28T01:27:17.898Z,74.20
2023-03-28T01:30:03.942Z,73.80
2023-03-28T01:33:10.617Z,73.60
2023-03-28T01:35:55.415Z,73.50
2023-03-28T01:38:12.187Z,73.80
2023-03-28T01:40:30.526Z,73.40
2023-03-28T01:42:53.022Z,73.00
2023-03-28T01:45:10.290Z,72.80
2023-03-28T01:47:24.840Z,72.70
2023-03-28T01:49:36.729Z,72.60
2023-03-28T01:51:55.942Z,72.30
2023-03-28T01:54:11.881Z,72.00
2023-03-28T01:56:25.241Z,72.00
2023-03-28T01:58:43.293Z,71.80
2023-03-28T02:01:02.221Z,71.70
2023-03-28T02:03:19.655Z,71.70
2023-03-28T02:05:33.820Z,71.60
2023-03-28T02:07:43.715Z,71.40
2023-03-28T02:09:57.604Z,71.20
2023-03-28T02:12:39.294Z,70.90
2023-03-28T02:14:50.573Z,69.90
2023-03-28T02:17:28.897Z,70.10
2023-03-28T02:19:53.784Z,69.90
2023-03-28T02:22:28.052Z,69.90
2023-03-28T02:24:57.503Z,69.90
2023-03-28T02:27:23.989Z,70.70
2023-03-28T02:30:04.248Z,70.50
2023-03-28T02:32:15.782Z,70.30
2023-03-28T02:34:23.021Z,69.30
2023-03-28T02:36:43.610Z,69.40
2023-03-28T02:38:59.036Z,69.30
2023-03-28T02:41:19.738Z,69.50
2023-03-28T02:43:52.825Z,69.30
2023-03-28T02:46:12.380Z,68.70
2023-03-28T02:48:33.209Z,69.00
2023-03-28T02:50:47.547Z,68.80
2023-03-28T02:53:01.239Z,68.80
2023-03-28T02:55:19.272Z,68.70
2023-03-28T02:57:56.856Z,68.60
2023-03-28T03:00:13.380Z,68.50
2023-03-28T03:02:22.726Z,68.50
2023-03-28T03:04:30.390Z,68.70
2023-03-28T03:06:38.190Z,68.20
2023-03-28T03:08:46.983Z,67.80
2023-03-28T03:10:54.353Z,67.80
2023-03-28T03:13:03.628Z,67.90
2023-03-28T03:15:11.731Z,68.00
2023-03-28T03:17:44.755Z,67.80
2023-03-28T03:19:52.607Z,68.10
2023-03-28T03:22:00.140Z,68.00
2023-03-28T03:24:07.843Z,68.10
2023-03-28T03:26:20.724Z,68.30
2023-03-28T03:28:40.947Z,68.50
2023-03-28T03:30:49.027Z,68.60
2023-03-28T03:33:12.355Z,68.80
2023-03-28T03:35:25.332Z,68.90
2023-03-28T03:37:36.087Z,68.80
2023-03-28T03:39:42.968Z,68.60
2023-03-28T03:41:50.712Z,68.40
2023-03-28T03:43:59.629Z,68.10
2023-03-28T03:46:10.352Z,68.00
2023-03-28T03:48:18.857Z,67.80
2023-03-28T03:50:25.731Z,67.60
2023-03-28T03:52:33.635Z,67.50
2023-03-28T03:54:41.016Z,67.40
2023-03-28T03:56:51.327Z,67.60
2023-03-28T03:59:00.655Z,67.50
2023-03-28T04:01:14.959Z,67.50
2023-03-28T04:03:25.231Z,67.20
2023-03-28T04:05:34.072Z,67.20
2023-03-28T04:07:46.579Z,67.30
2023-03-28T04:10:07.328Z,67.20
2023-03-28T04:12:18.529Z,67.30
2023-03-28T04:14:30.702Z,66.40
2023-03-28T04:17:00.054Z,67.10
2023-03-28T04:19:07.809Z,66.60
2023-03-28T04:21:14.844Z,66.40
2023-03-28T04:23:26.777Z,65.60
2023-03-28T04:25:34.383Z,65.70
2023-03-28T04:27:56.907Z,65.80
2023-03-28T04:30:08.444Z,65.90
2023-03-28T04:32:36.890Z,66.00
2023-03-28T04:34:47.583Z,65.80
2023-03-28T04:36:57.946Z,65.70
2023-03-28T04:39:05.894Z,65.90
2023-03-28T04:41:31.153Z,65.80
2023-03-28T04:44:19.703Z,65.30
2023-03-28T04:46:37.172Z,65.00
2023-03-28T04:48:56.317Z,64.50
2023-03-28T04:51:09.250Z,64.10
2023-03-28T04:53:19.456Z,63.50
2023-03-28T04:55:50.270Z,62.60
2023-03-28T04:58:02.900Z,63.50
2023-03-28T05:00:13.868Z,63.60
2023-03-28T05:02:38.019Z,63.40
2023-03-28T05:04:46.150Z,62.60
2023-03-28T05:06:54.354Z,62.60
2023-03-28T05:09:01.945Z,62.20
2023-03-28T05:11:10.148Z,60.70
2023-03-28T05:13:17.330Z,61.90
2023-03-28T05:15:36.592Z,62.40
2023-03-28T05:17:59.105Z,61.50
2023-03-28T05:20:12.160Z,62.20
2023-03-28T05:22:28.346Z,62.40
2023-03-28T05:24:39.213Z,62.40
2023-03-28T05:26:53.466Z,61.90
2023-03-28T05:29:03.357Z,61.90
2023-03-28T05:31:11.001Z,61.50
2023-03-28T05:33:20.689Z,61.60
2023-03-28T05:35:29.408Z,61.40
2023-03-28T05:37:39.213Z,61.70
2023-03-28T05:39:48.429Z,60.90
2023-03-28T05:41:56.228Z,60.90
2023-03-28T05:44:03.157Z,60.60
2023-03-28T05:46:28.614Z,60.60
2023-03-28T05:48:37.893Z,60.30
2023-03-28T05:50:46.004Z,60.10
2023-03-28T05:52:52.878Z,59.80
2023-03-28T05:55:00.564Z,59.60
2023-03-28T05:57:07.539Z,59.80
2023-03-28T05:59:14.872Z,60.20
2023-03-28T06:01:24.363Z,59.80
2023-03-28T06:03:41.189Z,59.50
2023-03-28T06:05:48.110Z,59.10
2023-03-28T06:08:04.133Z,58.70
2023-03-28T06:10:12.592Z,58.80
2023-03-28T06:12:21.779Z,58.70
2023-03-28T06:14:32.846Z,58.30
2023-03-28T06:16:44.395Z,58.80
2023-03-28T06:18:59.210Z,58.80
2023-03-28T06:21:18.662Z,58.00
2023-03-28T06:23:26.410Z,57.50
2023-03-28T06:25:34.150Z,57.80
2023-03-28T06:27:41.532Z,57.30
2023-03-28T06:29:48.817Z,57.80
2023-03-28T06:31:55.794Z,57.90
2023-03-28T06:34:05.502Z,57.50
2023-03-28T06:36:14.997Z,57.30
2023-03-28T06:38:23.469Z,57.00
2023-03-28T06:40:32.100Z,56.80
2023-03-28T06:42:39.897Z,56.70
2023-03-28T06:45:07.627Z,56.20
2023-03-28T06:47:38.371Z,56.70
2023-03-28T06:49:48.148Z,56.30
2023-03-28T06:52:27.539Z,55.90
2023-03-28T06:54:35.646Z,56.20
2023-03-28T06:56:43.112Z,56.50
2023-03-28T06:58:50.348Z,56.20
2023-03-28T07:01:03.836Z,56.30
2023-03-28T07:03:31.666Z,56.10
2023-03-28T07:05:44.674Z,55.70
2023-03-28T07:07:52.460Z,55.40
2023-03-28T07:09:59.692Z,55.50
2023-03-28T07:12:06.724Z,55.90
2023-03-28T07:14:14.619Z,55.40
2023-03-28T07:16:21.923Z,55.30
2023-03-28T07:18:29.261Z,55.20
2023-03-28T07:20:36.370Z,55.50
2023-03-28T07:22:45.292Z,55.50
2023-03-28T07:24:52.267Z,55.30
2023-03-28T07:29:15.188Z,55.80
2023-03-28T07:31:22.841Z,55.20
2023-03-28T07:33:36.337Z,55.10
2023-03-28T07:35:50.001Z,55.30
2023-03-28T07:37:59.014Z,55.10
2023-03-28T07:40:29.906Z,55.60
2023-03-28T07:42:37.645Z,55.50
2023-03-28T07:44:44.673Z,55.30
2023-03-28T07:46:52.369Z,55.00
2023-03-28T07:49:01.697Z,54.10
2023-03-28T07:51:10.472Z,54.10
2023-03-28T07:53:19.595Z,53.80
2023-03-28T07:55:28.058Z,53.80
2023-03-28T07:57:35.137Z,54.20
2023-03-28T07:59:51.380Z,53.80
2023-03-28T08:01:58.974Z,54.40
2023-03-28T08:04:07.093Z,54.50
2023-03-28T08:06:40.422Z,54.40
2023-03-28T08:08:49.955Z,54.00
2023-03-28T08:11:14.346Z,54.00
2023-03-28T08:13:22.651Z,54.40
2023-03-28T08:15:31.228Z,54.70
2023-03-28T08:17:38.588Z,54.70
2023-03-28T08:19:47.315Z,54.90
2023-03-28T08:21:54.241Z,54.90
2023-03-28T08:24:03.317Z,55.10
2023-03-28T08:26:16.496Z,54.90
2023-03-28T08:28:29.304Z,53.80
2023-03-28T08:30:36.636Z,53.30
2023-03-28T08:32:45.683Z,54.20
2023-03-28T08:34:55.147Z,54.30
2023-03-28T08:37:02.995Z,54.50
2023-03-28T08:39:12.138Z,54.40
2023-03-28T08:41:34.151Z,53.90
2023-03-28T08:44:05.249Z,54.00
2023-03-28T08:46:17.232Z,54.00
2023-03-28T08:48:34.660Z,54.30
2023-03-28T08:50:46.409Z,54.40
2023-03-28T08:52:52.658Z,55.00
2023-03-28T08:55:07.317Z,55.00
2023-03-28T08:57:22.117Z,55.00
2023-03-28T08:59:34.738Z,54.70
2023-03-28T09:01:41.786Z,54.80
2023-03-28T09:03:50.995Z,54.70
2023-03-28T09:06:09.704Z,54.90
2023-03-28T09:08:36.571Z,55.10
2023-03-28T09:10:48.646Z,55.30
2023-03-28T09:13:12.401Z,55.50
2023-03-28T09:15:42.737Z,56.00
2023-03-28T09:18:07.604Z,56.40
2023-03-28T09:20:22.141Z,56.70
2023-03-28T09:22:37.554Z,56.70
2023-03-28T09:24:57.280Z,56.90
2023-03-28T09:27:20.280Z,57.00
2023-03-28T09:29:29.768Z,57.20
2023-03-28T09:31:41.300Z,57.60
2023-03-28T09:33:52.531Z,58.20
2023-03-28T09:36:15.798Z,58.40
2023-03-28T09:38:27.421Z,58.90
2023-03-28T09:40:36.240Z,59.00
2023-03-28T09:43:14.042Z,59.00
2023-03-28T09:45:40.133Z,59.50
2023-03-28T09:48:25.211Z,59.20
2023-03-28T09:50:34.413Z,59.90
2023-03-28T09:52:42.713Z,60.30
2023-03-28T09:54:51.799Z,60.40
2023-03-28T09:57:05.358Z,60.20
2023-03-28T09:59:38.570Z,60.00
2023-03-28T10:01:52.849Z,59.60
2023-03-28T10:04:21.640Z,59.60
2023-03-28T10:06:49.171Z,59.60
2023-03-28T10:08:56.654Z,59.90
2023-03-28T10:11:18.184Z,60.20
2023-03-28T10:13:26.275Z,60.40
2023-03-28T10:15:38.324Z,60.30
2023-03-28T10:18:04.822Z,60.10
2023-03-28T10:20:20.676Z,60.80
2023-03-28T10:22:34.531Z,60.70
2023-03-28T10:24:44.167Z,61.30
2023-03-28T10:26:51.661Z,61.60
2023-03-28T10:29:04.311Z,61.80
2023-03-28T10:31:30.074Z,61.00
2023-03-28T10:33:56.606Z,60.60
2023-03-28T10:36:32.586Z,60.50
2023-03-28T10:38:49.240Z,60.40
2023-03-28T10:41:15.664Z,59.90
2023-03-28T10:43:42.251Z,60.00
2023-03-28T10:45:57.266Z,60.10
2023-03-28T10:48:34.710Z,61.50
2023-03-28T10:50:47.810Z,63.10
2023-03-28T10:53:13.286Z,64.30
2023-03-28T10:55:24.418Z,63.20
2023-03-28T10:58:03.644Z,63.90
2023-03-28T11:00:20.707Z,64.20
2023-03-28T11:02:53.233Z,64.70
2023-03-28T11:05:22.588Z,65.10
2023-03-28T11:07:35.400Z,64.10
2023-03-28T11:10:14.447Z,64.40
2023-03-28T11:12:55.527Z,64.40
2023-03-28T11:15:13.795Z,65.40
2023-03-28T11:17:35.450Z,65.50
2023-03-28T11:20:20.074Z,66.20
2023-03-28T11:22:41.574Z,66.20
2023-03-28T11:24:58.911Z,66.50
2023-03-28T11:27:32.100Z,66.10
2023-03-28T11:29:48.653Z,65.80
2023-03-28T11:32:08.789Z,65.40
2023-03-28T11:34:20.785Z,65.90
2023-03-28T11:36:32.213Z,66.30
2023-03-28T11:38:43.899Z,66.80
2023-03-28T11:40:58.954Z,66.20
2023-03-28T11:43:49.735Z,66.00
2023-03-28T11:46:05.575Z,66.20
2023-03-28T11:48:17.958Z,66.70
2023-03-28T11:50:29.391Z,67.20
2023-03-28T11:53:05.500Z,67.90
2023-03-28T11:55:23.382Z,68.40
2023-03-28T11:57:36.757Z,68.20
2023-03-28T11:59:53.778Z,68.30
2023-03-28T12:02:18.573Z,68.60
2023-03-28T12:04:31.740Z,69.00
2023-03-28T12:06:55.817Z,69.30
2023-03-28T12:09:19.038Z,69.30
2023-03-28T12:11:34.897Z,69.60
2023-03-28T12:14:01.290Z,69.60
2023-03-28T12:16:15.823Z,69.90
2023-03-28T12:18:30.507Z,70.20
2023-03-28T12:20:42.851Z,70.90
2023-03-28T12:23:06.724Z,71.30
2023-03-28T12:26:02.443Z,71.30
2023-03-28T12:28:18.483Z,71.50
2023-03-28T12:30:30.882Z,71.30
2023-03-28T12:32:47.605Z,71.70
2023-03-28T12:35:08.398Z,72.00
2023-03-28T12:37:30.267Z,71.90
2023-03-28T12:39:47.639Z,72.20
2023-03-28T12:42:07.432Z,72.40
2023-03-28T12:44:22.302Z,72.80
2023-03-28T12:46:39.722Z,72.90
2023-03-28T12:48:50.674Z,73.20
2023-03-28T12:51:10.605Z,73.40
2023-03-28T12:53:18.507Z,73.50
2023-03-28T12:55:48.380Z,73.30
2023-03-28T12:58:17.209Z,73.20
2023-03-28T13:00:52.745Z,73.10
2023-03-28T13:03:29.744Z,72.60
2023-03-28T13:05:45.526Z,72.20
2023-03-28T13:08:03.342Z,72.10
2023-03-28T13:10:20.018Z,72.30
2023-03-28T13:12:49.150Z,72.40
2023-03-28T13:15:28.177Z,72.20
2023-03-28T13:17:38.927Z,71.50
2023-03-28T13:19:56.512Z,71.50
2023-03-28T13:22:05.078Z,71.40
2023-03-28T13:24:31.372Z,71.00
2023-03-28T13:26:58.362Z,70.60
2023-03-28T13:29:05.574Z,70.60
2023-03-28T13:31:25.336Z,70.40
2023-03-28T13:33:38.313Z,70.20
2023-03-28T13:35:49.957Z,70.00
2023-03-28T13:37:57.318Z,69.80
2023-03-28T13:40:08.280Z,69.70
2023-03-28T13:43:00.561Z,69.60
2023-03-28T13:45:17.734Z,69.40
2023-03-28T13:47:34.141Z,69.30
2023-03-28T13:49:48.242Z,69.30
2023-03-28T13:52:02.056Z,69.20
2023-03-28T13:54:11.591Z,69.10
2023-03-28T13:56:25.896Z,68.90
2023-03-28T13:58:33.286Z,68.80
2023-03-28T14:00:40.269Z,68.80
2023-03-28T14:02:50.945Z,69.20
2023-03-28T14:05:00.301Z,70.60
2023-03-28T14:07:07.891Z,71.00
2023-03-28T14:09:21.627Z,72.00
2023-03-28T14:11:32.775Z,73.10
2023-03-28T14:13:41.777Z,74.40
2023-03-28T14:15:49.783Z,75.30
2023-03-28T14:18:00.011Z,76.40
2023-03-28T14:20:10.436Z,77.20
2023-03-28T14:22:20.857Z,77.50
2023-03-28T14:24:29.933Z,78.20
2023-03-28T14:26:39.668Z,78.80
2023-03-28T14:28:49.055Z,81.30
2023-03-28T14:30:56.435Z,79.10
2023-03-28T14:33:08.782Z,78.90
2023-03-28T14:35:22.876Z,77.80
2023-03-28T14:37:31.005Z,78.10
2023-03-28T14:39:39.975Z,79.10
2023-03-28T14:41:48.168Z,79.60
2023-03-28T14:43:57.910Z,79.80
2023-03-28T14:46:09.425Z,80.30
2023-03-28T14:48:21.434Z,80.70
2023-03-28T14:50:34.094Z,81.20
2023-03-28T14:52:45.532Z,81.70
2023-03-28T14:54:54.502Z,80.90
2023-03-28T14:57:03.623Z,80.60
2023-03-28T14:59:14.749Z,78.60
2023-03-28T15:01:24.464Z,78.00
2023-03-28T15:03:36.793Z,78.50
2023-03-28T15:05:44.960Z,79.00
2023-03-28T15:08:00.373Z,78.50
2023-03-28T15:10:12.807Z,74.80
2023-03-28T15:12:22.513Z,74.00
2023-03-28T15:14:37.027Z,73.10
2023-03-28T15:16:47.379Z,72.10
2023-03-28T15:19:01.365Z,72.90
2023-03-28T15:21:12.084Z,70.70
2023-03-28T15:23:30.121Z,69.30
2023-03-28T15:25:39.500Z,71.60
2023-03-28T15:27:51.528Z,73.80
2023-03-28T15:30:00.196Z,74.50
2023-03-28T15:32:09.594Z,75.30
2023-03-28T15:34:24.351Z,77.10
2023-03-28T15:36:35.733Z,79.40
2023-03-28T15:38:43.476Z,79.90
2023-03-28T15:40:52.295Z,82.30
2023-03-28T15:43:01.324Z,83.90
2023-03-28T15:45:48.241Z,84.60
2023-03-28T15:47:57.609Z,83.00
2023-03-28T15:50:08.853Z,82.50
2023-03-28T15:52:21.915Z,87.70
2023-03-28T15:54:31.898Z,91.70
2023-03-28T15:56:42.748Z,94.10
2023-03-28T15:58:50.017Z,96.20
2023-03-28T16:00:58.237Z,97.50
2023-03-28T16:03:33.620Z,99.50
2023-03-28T16:05:43.056Z,99.90
2023-03-28T16:07:53.096Z,99.90
2023-03-28T16:10:00.176Z,99.90
2023-03-28T16:12:08.476Z,99.90
2023-03-28T16:14:25.035Z,99.90
2023-03-28T16:16:55.714Z,99.90
2023-03-28T16:19:17.035Z,99.90
2023-03-28T16:21:25.762Z,99.90
2023-03-28T16:23:33.136Z,99.90
2023-03-28T16:25:40.582Z,99.90
2023-03-28T16:27:48.367Z,99.40
2023-03-28T16:29:55.711Z,98.60
2023-03-28T16:32:03.433Z,98.10
2023-03-28T16:34:10.985Z,97.70
2023-03-28T16:36:18.491Z,97.20
2023-03-28T16:38:27.956Z,96.30
2023-03-28T16:40:35.453Z,96.00
2023-03-28T16:42:42.694Z,95.00
2023-03-28T16:44:52.683Z,94.20
2023-03-28T16:46:59.602Z,93.80
2023-03-28T16:49:06.527Z,93.90
2023-03-28T16:51:14.065Z,93.40
2023-03-28T16:53:21.615Z,94.00
2023-03-28T16:55:30.527Z,94.40
2023-03-28T16:57:37.742Z,94.60
2023-03-28T16:59:44.997Z,95.10
2023-03-28T17:01:52.511Z,95.90
2023-03-28T17:04:00.138Z,96.30
2023-03-28T17:06:09.107Z,96.00
2023-03-28T17:08:16.860Z,95.30
2023-03-28T17:10:23.723Z,95.30
2023-03-28T17:12:32.848Z,94.90
2023-03-28T17:14:40.090Z,94.50
2023-03-28T17:16:47.733Z,94.50
2023-03-28T17:18:55.008Z,94.90
2023-03-28T17:21:04.563Z,94.70
2023-03-28T17:23:11.417Z,94.50
2023-03-28T17:25:18.804Z,94.20
2023-03-28T17:27:25.731Z,94.30
2023-03-28T17:29:34.918Z,94.50
2023-03-28T17:31:42.040Z,94.20
2023-03-28T17:33:50.155Z,94.60
2023-03-28T17:35:57.557Z,94.40
2023-03-28T17:38:05.374Z,93.90
2023-03-28T17:40:13.706Z,93.90
2023-03-28T17:42:21.272Z,93.80
2023-03-28T17:44:28.662Z,93.70
2023-03-28T17:46:38.096Z,93.40
2023-03-28T17:48:45.432Z,93.20
2023-03-28T17:50:56.006Z,92.90
2023-03-28T17:53:02.924Z,92.80
2023-03-28T17:55:11.073Z,92.70
2023-03-28T17:57:18.421Z,92.40
2023-03-28T17:59:26.253Z,92.20
2023-03-28T18:01:33.570Z,92.00
2023-03-28T18:03:43.208Z,91.70
2023-03-28T18:06:11.400Z,91.50
2023-03-28T18:08:19.147Z,91.50
2023-03-28T18:10:26.532Z,91.60
2023-03-28T18:12:34.179Z,91.60
2023-03-28T18:14:41.412Z,91.30
2023-03-28T18:16:49.628Z,91.00
2023-03-28T18:18:58.748Z,90.70
2023-03-28T18:21:06.228Z,90.70
2023-03-28T18:23:13.563Z,91.00
2023-03-28T18:25:21.262Z,91.00
2023-03-28T18:27:28.437Z,90.90
2023-03-28T18:29:36.022Z,91.00
2023-03-28T18:31:44.313Z,90.90
2023-03-28T18:33:51.982Z,91.00
2023-03-28T18:36:01.029Z,90.90
2023-03-28T18:38:09.060Z,90.90
2023-03-28T18:40:16.816Z,90.70
2023-03-28T18:42:24.500Z,90.60
2023-03-28T18:44:31.733Z,90.40
2023-03-28T18:46:40.150Z,90.30
2023-03-28T18:48:47.786Z,90.30
2023-03-28T18:50:55.226Z,90.20
2023-03-28T18:53:04.301Z,90.50
2023-03-28T18:55:13.187Z,90.60
2023-03-28T18:57:20.395Z,90.80
2023-03-28T18:59:28.674Z,91.00
2023-03-28T19:01:36.835Z,90.90
2023-03-28T19:03:44.353Z,91.30
2023-03-28T19:05:51.535Z,91.70
2023-03-28T19:07:59.381Z,91.80
2023-03-28T19:10:09.436Z,91.50
2023-03-28T19:12:17.484Z,91.60
2023-03-28T19:14:25.125Z,91.50
2023-03-28T19:16:36.748Z,91.40
2023-03-28T19:18:44.559Z,91.30
2023-03-28T19:20:55.837Z,91.50
2023-03-28T19:23:03.015Z,91.70
2023-03-28T19:25:13.370Z,91.90
2023-03-28T19:27:20.640Z,92.00
2023-03-28T19:29:28.421Z,92.10
2023-03-28T19:31:35.968Z,92.20
2023-03-28T19:33:44.048Z,92.20
2023-03-28T19:35:51.344Z,92.40
2023-03-28T19:37:59.443Z,92.60
2023-03-28T19:40:09.749Z,92.60
2023-03-28T19:42:21.406Z,92.70
2023-03-28T19:44:28.810Z,92.90
2023-03-28T19:46:38.103Z,92.80
2023-03-28T19:48:45.938Z,92.60
2023-03-28T19:50:53.580Z,92.30
2023-03-28T19:53:00.813Z,91.80
2023-03-28T19:55:08.934Z,91.30
2023-03-28T19:57:18.640Z,91.20
2023-03-28T19:59:26.095Z,91.00
2023-03-28T20:01:33.456Z,91.10
2023-03-28T20:03:40.871Z,91.20
2023-03-28T20:05:48.818Z,91.20
2023-03-28T20:07:56.203Z,91.30
2023-03-28T20:10:03.301Z,90.90
2023-03-28T20:12:11.288Z,90.40
2023-03-28T20:14:22.306Z,90.40
2023-03-28T20:16:29.809Z,90.50
2023-03-28T20:18:38.010Z,90.80
2023-03-28T20:20:45.802Z,90.80
2023-03-28T20:22:52.886Z,90.50
2023-03-28T20:25:00.265Z,90.70
2023-03-28T20:27:07.657Z,90.80
2023-03-28T20:29:16.623Z,90.90
2023-03-28T20:31:25.785Z,90.90
2023-03-28T20:33:33.498Z,90.70
2023-03-28T20:35:42.737Z,90.50
2023-03-28T20:37:50.262Z,90.10
2023-03-28T20:39:57.467Z,90.00
2023-03-28T20:42:06.621Z,90.20
2023-03-28T20:44:20.869Z,90.60
2023-03-28T20:46:30.195Z,90.90
2023-03-28T20:48:37.638Z,91.10
2023-03-28T20:50:45.229Z,91.10
2023-03-28T20:52:53.154Z,91.20
2023-03-28T20:55:00.617Z,91.10
2023-03-28T20:57:07.897Z,91.20
2023-03-28T20:59:15.638Z,91.10
2023-03-28T21:01:27.410Z,90.90
2023-03-28T21:03:49.389Z,90.70
2023-03-28T21:05:56.646Z,90.60
2023-03-28T21:08:05.469Z,90.70
2023-03-28T21:10:13.674Z,90.80
2023-03-28T21:12:21.059Z,90.70
2023-03-28T21:14:28.195Z,90.90
2023-03-28T21:16:36.273Z,91.00
2023-03-28T21:18:45.216Z,91.10
2023-03-28T21:20:52.704Z,90.90
2023-03-28T21:23:00.858Z,90.90
2023-03-28T21:25:09.473Z,91.00
2023-03-28T21:27:16.821Z,90.80
2023-03-28T21:29:25.588Z,91.00
2023-03-28T21:31:33.641Z,91.10
2023-03-28T21:33:42.566Z,91.40
2023-03-28T21:35:53.640Z,91.90
2023-03-28T21:38:01.281Z,92.70
2023-03-28T21:40:09.778Z,92.50
2023-03-28T21:42:17.011Z,93.00
2023-03-28T21:44:24.206Z,93.50
2023-03-28T21:46:31.804Z,94.60
2023-03-28T21:48:39.212Z,94.20
2023-03-28T21:50:54.645Z,94.20
2023-03-28T21:53:02.038Z,94.40
2023-03-28T21:55:10.598Z,94.60
2023-03-28T21:57:17.946Z,94.30
2023-03-28T21:59:25.628Z,94.20
2023-03-28T22:01:32.952Z,94.30
2023-03-28T22:03:41.352Z,94.90
2023-03-28T22:05:48.456Z,94.50
2023-03-28T22:07:57.262Z,94.30
2023-03-28T22:10:04.974Z,94.30
2023-03-28T22:12:12.508Z,94.20
2023-03-28T22:14:19.844Z,94.30
2023-03-28T22:16:27.128Z,94.40
2023-03-28T22:18:35.027Z,94.60
2023-03-28T22:20:44.615Z,94.70
2023-03-28T22:22:51.490Z,94.70
2023-03-28T22:25:01.539Z,94.80
2023-03-28T22:27:08.671Z,96.00
2023-03-28T22:29:16.362Z,98.30
2023-03-28T22:31:24.461Z,99.30
2023-03-28T22:33:33.041Z,99.20
2023-03-28T22:35:40.088Z,98.60
2023-03-28T22:37:47.138Z,98.30
2023-03-28T22:39:54.013Z,98.10
2023-03-28T22:42:03.050Z,97.90
2023-03-28T22:44:10.525Z,97.70
2023-03-28T22:46:18.615Z,97.60
2023-03-28T22:48:25.554Z,97.40
2023-03-28T22:50:34.593Z,98.00
2023-03-28T22:52:42.837Z,98.10
2023-03-28T22:54:50.121Z,97.90
2023-03-28T22:56:57.083Z,97.70
2023-03-28T22:59:05.924Z,97.80
2023-03-28T23:01:12.843Z,97.70
2023-03-28T23:03:20.285Z,97.60
2023-03-28T23:05:27.182Z,97.60
2023-03-28T23:07:35.971Z,97.50
2023-03-28T23:09:44.332Z,97.90
2023-03-28T23:11:52.241Z,98.50
2023-03-28T23:13:59.568Z,98.30
2023-03-28T23:16:09.897Z,98.40
2023-03-28T23:18:17.465Z,98.30
2023-03-28T23:20:25.825Z,98.20
2023-03-28T23:22:33.060Z,98.30
2023-03-28T23:24:40.288Z,98.70
2023-03-28T23:26:47.724Z,98.50
2023-03-28T23:28:55.470Z,98.70
2023-03-28T23:31:02.612Z,98.60
2023-03-28T23:33:11.743Z,98.60
2023-03-28T23:35:19.112Z,98.40
2023-03-28T23:37:28.650Z,98.50
2023-03-28T23:39:35.881Z,98.30
2023-03-28T23:41:43.615Z,99.20
2023-03-28T23:43:50.602Z,99.50
2023-03-28T23:45:57.866Z,99.70
2023-03-28T23:48:05.309Z,99.60
2023-03-28T23:50:15.320Z,99.90
2023-03-28T23:52:22.247Z,99.90
2023-03-28T23:54:30.965Z,99.90
2023-03-28T23:56:38.014Z,99.90
2023-03-28T23:58:45.433Z,99.90
